This is the latest recevied weather packets stored in our database for station/object OE3MNS-13. If no packets are shown the sender has not sent any weather packets the latest 1 day(s).
| Time | Temp. | Humidity | Pressure | Rain* | Wind** | Luminosity | Snow |
|---|---|---|---|---|---|---|---|
| 1778271919 | 14.44° C | 62% | 1016.4 hPa | - | - | - | - |
| 1778269821 | 15° C | 59% | 1016.1 hPa | - | - | - | - |
| 1778268618 | 15.56° C | 59% | 1015.8 hPa | - | - | - | - |
| 1778268022 | 16.11° C | 57% | 1015.7 hPa | - | - | - | - |
| 1778266817 | 16.67° C | 54% | 1015.5 hPa | - | - | - | - |
| 1778266220 | 16.67° C | 55% | 1015.3 hPa | - | - | - | - |
| 1778265917 | 16.67° C | 54% | 1015.3 hPa | - | - | - | - |
| 1778264719 | 16.67° C | 54% | 1015.1 hPa | - | - | - | - |
| 1778264122 | 17.22° C | 53% | 1015 hPa | - | - | - | - |
| 1778263221 | 18.33° C | 47% | 1014.9 hPa | - | - | - | - |
| 1778262918 | 18.33° C | 46% | 1014.7 hPa | - | - | - | - |
| 1778261422 | 18.89° C | 44% | 1014.5 hPa | - | - | - | - |
| 1778260821 | 19.44° C | 44% | 1014.5 hPa | - | - | - | - |
| 1778258417 | 20.56° C | 41% | 1014.5 hPa | - | - | - | - |
| 1778257220 | 20.56° C | 41% | 1014.5 hPa | - | - | - | - |
| 1778254222 | 21.67° C | 38% | 1014.6 hPa | - | - | - | - |
| 1778251818 | 20.56° C | 40% | 1015 hPa | - | - | - | - |
| 1778251517 | 21.11° C | 38% | 1015 hPa | - | - | - | - |
| 1778251222 | 21.11° C | 38% | 1015.2 hPa | - | - | - | - |
| 1778250622 | 21.67° C | 38% | 1015.1 hPa | - | - | - | - |
| 1778245821 | 22.22° C | 39% | 1015.8 hPa | - | - | - | - |
| 1778245520 | 21.67° C | 39% | 1015.8 hPa | - | - | - | - |
| 1778245218 | 21.67° C | 39% | 1015.9 hPa | - | - | - | - |
* Rain since midnight (hover to see other rain measurements)
** Current wind speed in m/s (hover to see current wind gust speed)